createdAt,value
2019-05-06T00:00:00.000Z,98415
2019-05-06T00:05:00.000Z,98406
2019-05-06T00:11:00.000Z,98410
2019-05-06T00:16:00.000Z,98391
2019-05-06T00:21:00.000Z,98391
2019-05-06T00:26:00.000Z,98391
2019-05-06T00:31:00.000Z,98383
2019-05-06T00:36:00.000Z,98386
2019-05-06T00:41:00.000Z,98385
2019-05-06T00:46:00.000Z,98403
2019-05-06T00:51:00.000Z,98379
2019-05-06T00:56:00.000Z,98379
2019-05-06T01:01:00.000Z,98390
2019-05-06T01:06:00.000Z,98373
2019-05-06T01:11:00.000Z,98380
2019-05-06T01:16:00.000Z,98397
2019-05-06T01:21:00.000Z,98387
2019-05-06T01:26:00.000Z,98393
2019-05-06T01:31:00.000Z,98395
2019-05-06T01:36:00.000Z,98391
2019-05-06T01:41:00.000Z,98404
2019-05-06T01:46:00.000Z,98392
2019-05-06T01:51:00.000Z,98386
2019-05-06T01:56:00.000Z,98392
2019-05-06T02:01:00.000Z,98400
2019-05-06T02:07:00.000Z,98380
2019-05-06T02:12:00.000Z,98394
2019-05-06T02:17:00.000Z,98386
2019-05-06T02:22:00.000Z,98396
2019-05-06T02:27:00.000Z,98400
2019-05-06T02:32:00.000Z,98404
2019-05-06T02:37:00.000Z,98413
2019-05-06T02:42:00.000Z,98413
2019-05-06T02:47:00.000Z,98413
2019-05-06T02:52:00.000Z,98394
2019-05-06T02:57:00.000Z,98419
2019-05-06T03:02:00.000Z,98425
2019-05-06T03:07:00.000Z,98430
2019-05-06T03:12:00.000Z,98431
2019-05-06T03:17:00.000Z,98433
2019-05-06T03:22:00.000Z,98441
2019-05-06T03:27:00.000Z,98444
2019-05-06T03:32:00.000Z,98441
2019-05-06T03:38:00.000Z,98440
2019-05-06T03:43:00.000Z,98447
2019-05-06T03:48:00.000Z,98433
2019-05-06T03:53:00.000Z,98446
2019-05-06T03:58:00.000Z,98454
2019-05-06T04:03:00.000Z,98454
2019-05-06T04:08:00.000Z,98454
2019-05-06T04:13:00.000Z,98457
2019-05-06T04:19:00.000Z,98468
2019-05-06T04:24:00.000Z,98483
2019-05-06T04:29:00.000Z,98486
2019-05-06T04:34:00.000Z,98487
2019-05-06T04:39:00.000Z,98457
2019-05-06T04:44:00.000Z,98463
2019-05-06T04:49:00.000Z,98454
2019-05-06T04:54:00.000Z,98446
2019-05-06T04:59:00.000Z,98441
2019-05-06T05:04:00.000Z,98452
2019-05-06T05:09:00.000Z,98446
2019-05-06T05:14:00.000Z,98462
2019-05-06T05:19:00.000Z,98453
2019-05-06T05:24:00.000Z,98444
2019-05-06T05:29:00.000Z,98460
2019-05-06T05:34:00.000Z,98486
2019-05-06T05:39:00.000Z,98477
2019-05-06T05:44:00.000Z,98491
2019-05-06T05:49:00.000Z,98483
2019-05-06T05:54:00.000Z,98488
2019-05-06T05:59:00.000Z,98487
2019-05-06T06:04:00.000Z,98491
2019-05-06T06:09:00.000Z,98490
2019-05-06T06:14:00.000Z,98480
2019-05-06T06:20:00.000Z,98494
2019-05-06T06:25:00.000Z,98489
2019-05-06T06:30:00.000Z,98486
2019-05-06T06:35:00.000Z,98486
2019-05-06T06:40:00.000Z,98488
2019-05-06T06:45:00.000Z,98488
2019-05-06T06:50:00.000Z,98487
2019-05-06T06:55:00.000Z,98483
2019-05-06T07:00:00.000Z,98484
2019-05-06T07:05:00.000Z,98491
2019-05-06T07:10:00.000Z,98489
2019-05-06T07:15:00.000Z,98489
2019-05-06T07:20:00.000Z,98495
2019-05-06T07:25:00.000Z,98488
2019-05-06T07:30:00.000Z,98494
2019-05-06T07:35:00.000Z,98487
2019-05-06T07:40:00.000Z,98482
2019-05-06T07:45:00.000Z,98500
2019-05-06T07:50:00.000Z,98503
2019-05-06T07:55:00.000Z,98498
2019-05-06T08:00:00.000Z,98492
2019-05-06T08:05:00.000Z,98507
2019-05-06T08:10:00.000Z,98512
2019-05-06T08:15:00.000Z,98505
2019-05-06T08:21:00.000Z,98504
2019-05-06T08:26:00.000Z,98517
2019-05-06T08:31:00.000Z,98509
2019-05-06T08:36:00.000Z,98513
2019-05-06T08:41:00.000Z,98523
2019-05-06T08:46:00.000Z,98526
2019-05-06T08:51:00.000Z,98534
2019-05-06T08:56:00.000Z,98536
2019-05-06T09:01:00.000Z,98538
2019-05-06T09:06:00.000Z,98519
2019-05-06T09:11:00.000Z,98513
2019-05-06T09:16:00.000Z,98522
2019-05-06T09:21:00.000Z,98519
2019-05-06T09:26:00.000Z,98541
2019-05-06T09:31:00.000Z,98522
2019-05-06T09:36:00.000Z,98526
2019-05-06T09:41:00.000Z,98525
2019-05-06T09:46:00.000Z,98532
2019-05-06T09:51:00.000Z,98526
2019-05-06T09:57:00.000Z,98543
2019-05-06T10:02:00.000Z,98535
2019-05-06T10:07:00.000Z,98531
2019-05-06T10:12:00.000Z,98539
2019-05-06T10:17:00.000Z,98540
2019-05-06T10:22:00.000Z,98531
2019-05-06T10:27:00.000Z,98544
2019-05-06T10:32:00.000Z,98535
2019-05-06T10:37:00.000Z,98527
2019-05-06T10:42:00.000Z,98524
2019-05-06T10:47:00.000Z,98529
2019-05-06T10:52:00.000Z,98507
2019-05-06T10:57:00.000Z,98524
2019-05-06T11:02:00.000Z,98506
2019-05-06T11:07:00.000Z,98504
2019-05-06T11:12:00.000Z,98497
2019-05-06T11:17:00.000Z,98498
2019-05-06T11:22:00.000Z,98499
2019-05-06T11:27:00.000Z,98489
2019-05-06T11:32:00.000Z,98497
2019-05-06T11:37:00.000Z,98498
2019-05-06T11:42:00.000Z,98505
2019-05-06T11:47:00.000Z,98492
2019-05-06T11:52:00.000Z,98505
2019-05-06T11:57:00.000Z,98509
2019-05-06T12:02:00.000Z,98508
2019-05-06T12:07:00.000Z,98489
2019-05-06T12:13:00.000Z,98500
2019-05-06T12:18:00.000Z,98502
2019-05-06T12:23:00.000Z,98503
2019-05-06T12:28:00.000Z,98510
2019-05-06T12:33:00.000Z,98501
2019-05-06T12:38:00.000Z,98508
2019-05-06T12:43:00.000Z,98504
2019-05-06T12:48:00.000Z,98505
2019-05-06T12:53:00.000Z,98511
2019-05-06T12:58:00.000Z,98497
2019-05-06T13:03:00.000Z,98510
2019-05-06T13:08:00.000Z,98506
2019-05-06T13:14:00.000Z,98509
2019-05-06T13:19:00.000Z,98500
2019-05-06T13:24:00.000Z,98508
2019-05-06T13:29:00.000Z,98501
2019-05-06T13:34:00.000Z,98511
2019-05-06T13:39:00.000Z,98499
2019-05-06T13:44:00.000Z,98506
2019-05-06T13:49:00.000Z,98507
2019-05-06T13:54:00.000Z,98505
2019-05-06T13:59:00.000Z,98499
2019-05-06T14:04:00.000Z,98512
2019-05-06T14:09:00.000Z,98500
2019-05-06T14:14:00.000Z,98510
2019-05-06T14:19:00.000Z,98511
2019-05-06T14:24:00.000Z,98518
2019-05-06T14:29:00.000Z,98514
2019-05-06T14:34:00.000Z,98525
2019-05-06T14:39:00.000Z,98519
2019-05-06T14:44:00.000Z,98524
2019-05-06T14:50:00.000Z,98524
2019-05-06T14:55:00.000Z,98537
2019-05-06T15:00:00.000Z,98547
2019-05-06T15:05:00.000Z,98549
2019-05-06T15:10:00.000Z,98557
2019-05-06T15:15:00.000Z,98548
2019-05-06T15:20:00.000Z,98565
2019-05-06T15:25:00.000Z,98566
2019-05-06T15:30:00.000Z,98572
2019-05-06T15:35:00.000Z,98567
2019-05-06T15:40:00.000Z,98553
2019-05-06T15:45:00.000Z,98564
2019-05-06T15:50:00.000Z,98577
2019-05-06T15:55:00.000Z,98572
2019-05-06T16:00:00.000Z,98580
2019-05-06T16:05:00.000Z,98586
2019-05-06T16:10:00.000Z,98583
2019-05-06T16:15:00.000Z,98587
2019-05-06T16:20:00.000Z,98573
2019-05-06T16:26:00.000Z,98580
2019-05-06T16:31:00.000Z,98583
2019-05-06T16:36:00.000Z,98595
2019-05-06T16:41:00.000Z,98592
2019-05-06T16:46:00.000Z,98600
2019-05-06T16:51:00.000Z,98602
2019-05-06T16:56:00.000Z,98603
2019-05-06T17:01:00.000Z,98603
2019-05-06T17:06:00.000Z,98604
2019-05-06T17:11:00.000Z,98616
2019-05-06T17:16:00.000Z,98617
2019-05-06T17:21:00.000Z,98619
2019-05-06T17:26:00.000Z,98621
2019-05-06T17:31:00.000Z,98633
2019-05-06T17:36:00.000Z,98631
2019-05-06T17:41:00.000Z,98632
2019-05-06T17:46:00.000Z,98650
2019-05-06T17:51:00.000Z,98653
2019-05-06T17:56:00.000Z,98666
2019-05-06T18:01:00.000Z,98670
2019-05-06T18:06:00.000Z,98686
2019-05-06T18:11:00.000Z,98674
2019-05-06T18:16:00.000Z,98674
2019-05-06T18:22:00.000Z,98681
2019-05-06T18:27:00.000Z,98691
2019-05-06T18:32:00.000Z,98698
2019-05-06T18:37:00.000Z,98712
2019-05-06T18:42:00.000Z,98718
2019-05-06T18:47:00.000Z,98717
2019-05-06T18:52:00.000Z,98733
2019-05-06T18:57:00.000Z,98735
2019-05-06T19:02:00.000Z,98745
2019-05-06T19:07:00.000Z,98758
2019-05-06T19:12:00.000Z,98761
2019-05-06T19:17:00.000Z,98767
2019-05-06T19:22:00.000Z,98768
2019-05-06T19:27:00.000Z,98777
2019-05-06T19:32:00.000Z,98774
2019-05-06T19:37:00.000Z,98782
2019-05-06T19:42:00.000Z,98786
2019-05-06T19:47:00.000Z,98790
2019-05-06T19:52:00.000Z,98794
2019-05-06T19:57:00.000Z,98797
2019-05-06T20:02:00.000Z,98800
2019-05-06T20:07:00.000Z,98784
2019-05-06T20:12:00.000Z,98792
2019-05-06T20:18:00.000Z,98796
2019-05-06T20:23:00.000Z,98792
2019-05-06T20:28:00.000Z,98806
2019-05-06T20:33:00.000Z,98789
2019-05-06T20:38:00.000Z,98810
2019-05-06T20:43:00.000Z,98804
2019-05-06T20:48:00.000Z,98796
2019-05-06T20:53:00.000Z,98805
2019-05-06T20:58:00.000Z,98805
2019-05-06T21:03:00.000Z,98818
2019-05-06T21:08:00.000Z,98813
2019-05-06T21:13:00.000Z,98820
2019-05-06T21:18:00.000Z,98826
2019-05-06T21:23:00.000Z,98824
2019-05-06T21:28:00.000Z,98833
2019-05-06T21:33:00.000Z,98835
2019-05-06T21:38:00.000Z,98832
2019-05-06T21:43:00.000Z,98837
2019-05-06T21:48:00.000Z,98847
2019-05-06T21:53:00.000Z,98854
2019-05-06T21:58:00.000Z,98853
2019-05-06T22:03:00.000Z,98851
2019-05-06T22:08:00.000Z,98847
2019-05-06T22:13:00.000Z,98849
2019-05-06T22:19:00.000Z,98849
2019-05-06T22:24:00.000Z,98840
2019-05-06T22:29:00.000Z,98834
2019-05-06T22:34:00.000Z,98831
2019-05-06T22:39:00.000Z,98842
2019-05-06T22:44:00.000Z,98828
2019-05-06T22:49:00.000Z,98835
2019-05-06T22:54:00.000Z,98835
2019-05-06T22:59:00.000Z,98837
2019-05-06T23:04:00.000Z,98840
2019-05-06T23:09:00.000Z,98851
2019-05-06T23:14:00.000Z,98839
2019-05-06T23:19:00.000Z,98846
2019-05-06T23:24:00.000Z,98858
2019-05-06T23:29:00.000Z,98845
2019-05-06T23:34:00.000Z,98842
2019-05-06T23:39:00.000Z,98849
2019-05-06T23:44:00.000Z,98856
2019-05-06T23:49:00.000Z,98849
2019-05-06T23:54:00.000Z,98851
2019-05-06T23:59:00.000Z,98862
